Fayal, Minnesota
Current Conditions -  °F | °C
As of 6:12 PM on Tuesday 25 Nov 2014 (Local Time) from KEVM Reporting Station
Broken Clouds Broken Clouds  
Wind Chill: 13°   Ceiling: 2400
Heat Index: 19°   Visibility: 10mi
Dew Point:   Wind: 5mph
Humidity: 63%   Direction: 210°SSW
Pressure: 29.98"   Gusts: NA
Location:  47.4232°N, 92.5107°W
Report Text: KEVM 260012Z AUTO 21004KT 10SM BKN024 M07/M13 A2998 RMK AO2
Loading
Personal Weather Stations






























Interactive Weather Map New forecast layout! Learn more

10-Day Weather Forecast

Advertisements
Track Severe Weather on mobile